Time;durP1;ratioP1;P1;durP2;ratioP2;P2;SDS_P1;SDS_P2;PMS_P1;PMS_P2;Temp;Humidity;BMP_temperature;BMP_pressure;BME280_temperature;BME280_humidity;BME280_pressure;Samples;Min_cycle;Max_cycle;Signal;HPM_P1;HPM_P2
2023/02/14 00:01:11;;;;;;;16.85;3.70;;;18.60;99.90;;;;;;5004883;28;20026;-60
2023/02/14 00:03:39;;;;;;;18.45;5.20;;;18.60;99.90;;;;;;4998496;28;20032;-60
2023/02/14 00:06:08;;;;;;;20.20;6.00;;;18.60;99.90;;;;;;5013838;28;20026;-60
2023/02/14 00:08:35;;;;;;;19.27;6.38;;;18.70;99.90;;;;;;5009496;28;20379;-60
2023/02/14 00:11:04;;;;;;;14.35;3.53;;;18.70;99.90;;;;;;5019002;28;20045;-60
2023/02/14 00:13:32;;;;;;;12.85;2.70;;;18.70;99.90;;;;;;5019587;28;20109;-60
2023/02/14 00:15:59;;;;;;;11.82;3.42;;;18.80;99.90;;;;;;5024670;28;20037;-60
2023/02/14 00:19:01;;;;;;;14.52;3.50;;;18.90;99.90;;;;;;5011996;28;20402;-60
2023/02/14 00:21:14;;;;;;;14.50;2.42;;;19.00;99.90;;;;;;5025568;28;20435;-61
2023/02/14 00:23:41;;;;;;;14.80;3.33;;;19.30;99.90;;;;;;4997355;28;20498;-61
2023/02/14 00:26:14;;;;;;;8.45;2.50;;;19.70;99.90;;;;;;5000326;28;20033;-61
2023/02/14 00:28:41;;;;;;;11.48;2.20;;;19.90;99.90;;;;;;5015889;28;20029;-61
2023/02/14 00:31:09;;;;;;;9.10;2.13;;;20.20;99.90;;;;;;5017904;28;20034;-62
2023/02/14 00:33:37;;;;;;;11.45;1.80;;;20.50;99.90;;;;;;5015692;28;20391;-60
2023/02/14 00:36:06;;;;;;;3.78;1.30;;;20.70;99.90;;;;;;5019970;28;20034;-61
2023/02/14 00:38:33;;;;;;;6.40;1.17;;;20.90;99.90;;;;;;5023689;28;20022;-61
2023/02/14 00:41:01;;;;;;;9.07;1.88;;;21.10;99.90;;;;;;5004138;28;20180;-61
2023/02/14 00:43:28;;;;;;;3.78;1.00;;;21.30;99.90;;;;;;5014004;28;20030;-61
2023/02/14 00:45:56;;;;;;;4.03;1.27;;;21.50;99.90;;;;;;5021231;28;20025;-61
2023/02/14 00:48:24;;;;;;;11.32;2.13;;;21.70;99.90;;;;;;5007858;28;20467;-62
2023/02/14 00:50:51;;;;;;;7.47;1.25;;;21.90;99.90;;;;;;5011438;28;20065;-61
2023/02/14 00:53:18;;;;;;;4.72;1.15;;;22.00;99.90;;;;;;4993420;28;20037;-61
2023/02/14 00:55:46;;;;;;;4.30;1.33;;;22.10;99.90;;;;;;5002623;28;20079;-61
2023/02/14 00:58:13;;;;;;;3.83;1.13;;;22.10;99.90;;;;;;5014413;28;20102;-62
2023/02/14 01:00:41;;;;;;;4.05;1.42;;;22.10;99.90;;;;;;5009382;28;20479;-61
2023/02/14 01:03:08;;;;;;;6.95;1.55;;;21.90;99.90;;;;;;5011479;28;20041;-60
2023/02/14 01:05:36;;;;;;;6.75;1.75;;;21.80;99.90;;;;;;5010368;28;20029;-61
2023/02/14 01:08:03;;;;;;;5.25;1.50;;;21.70;99.90;;;;;;5006264;28;20403;-61
2023/02/14 01:10:31;;;;;;;6.80;1.60;;;21.60;99.90;;;;;;5015429;28;20049;-61
2023/02/14 01:12:59;;;;;;;4.47;1.40;;;21.30;99.90;;;;;;5008215;28;20030;-61
2023/02/14 01:15:26;;;;;;;4.88;1.20;;;21.00;99.90;;;;;;5013717;28;20054;-61
2023/02/14 01:17:53;;;;;;;3.45;1.13;;;20.80;99.90;;;;;;5012548;28;20037;-62
2023/02/14 01:20:21;;;;;;;4.43;1.45;;;20.80;99.90;;;;;;5015968;28;20049;-60
2023/02/14 01:22:49;;;;;;;3.20;1.27;;;20.90;99.90;;;;;;5010738;28;20034;-61
2023/02/14 01:25:16;;;;;;;7.57;2.05;;;20.90;99.90;;;;;;5012960;28;20026;-60
2023/02/14 01:27:44;;;;;;;7.68;1.33;;;20.80;99.90;;;;;;5005718;28;20565;-60
2023/02/14 01:30:12;;;;;;;8.45;1.95;;;20.80;99.90;;;;;;5013615;28;20017;-61
2023/02/14 01:32:41;;;;;;;4.35;1.40;;;20.70;99.90;;;;;;4999760;28;20506;-61
2023/02/14 01:35:09;;;;;;;5.60;1.48;;;20.70;99.90;;;;;;5007819;28;20066;-61
2023/02/14 01:37:37;;;;;;;4.07;1.10;;;20.60;99.90;;;;;;5011766;28;20643;-61
2023/02/14 01:40:07;;;;;;;3.92;1.65;;;20.60;99.90;;;;;;4985382;28;20488;-61
2023/02/14 01:42:36;;;;;;;5.95;1.63;;;20.50;99.90;;;;;;5006992;28;20029;-60
2023/02/14 01:45:08;;;;;;;7.25;1.95;;;20.20;99.90;;;;;;4991330;28;20029;-61
2023/02/14 01:47:40;;;;;;;3.40;1.48;;;19.90;99.90;;;;;;5009913;28;20050;-61
2023/02/14 01:50:31;;;;;;;6.35;2.00;;;19.70;99.90;;;;;;5008209;28;20029;-61
2023/02/14 01:53:04;;;;;;;4.95;1.83;;;19.50;99.90;;;;;;5011726;28;20021;-61
2023/02/14 01:55:38;;;;;;;9.43;2.05;;;19.40;99.90;;;;;;5020957;28;20041;-61
2023/02/14 01:58:15;;;;;;;7.82;2.45;;;19.30;99.90;;;;;;5009600;28;20383;-60
2023/02/14 02:00:58;;;;;;;6.65;2.45;;;19.20;99.90;;;;;;5006297;28;20571;-61
2023/02/14 02:03:52;;;;;;;7.05;2.33;;;19.20;99.90;;;;;;5013671;28;20029;-60
2023/02/14 02:06:26;;;;;;;5.47;2.25;;;19.20;99.90;;;;;;5015363;28;20145;-61
2023/02/14 02:08:59;;;;;;;8.57;3.10;;;19.10;99.90;;;;;;5025723;28;20026;-62
2023/02/14 02:11:27;;;;;;;8.48;2.67;;;19.10;99.90;;;;;;4996667;28;20279;-60
2023/02/14 02:13:54;;;;;;;10.65;3.42;;;19.10;99.90;;;;;;5017845;28;20072;-61
2023/02/14 02:16:26;;;;;;;9.32;2.42;;;19.20;99.90;;;;;;5018728;28;20445;-61
2023/02/14 02:18:59;;;;;;;10.90;2.40;;;19.20;99.90;;;;;;5022717;28;20022;-62
2023/02/14 02:21:54;;;;;;;6.50;2.30;;;19.20;99.90;;;;;;5012227;28;20029;-61
2023/02/14 02:24:42;;;;;;;4.38;2.00;;;19.30;99.90;;;;;;5016792;28;20120;-61
2023/02/14 02:27:57;;;;;;;8.27;2.13;;;19.30;99.90;;;;;;5021439;28;20034;-61
2023/02/14 02:30:49;;;;;;;9.80;3.20;;;19.40;99.90;;;;;;5018326;28;20034;-62
2023/02/14 02:33:20;;;;;;;6.88;3.10;;;19.30;99.90;;;;;;5012919;28;20018;-61
2023/02/14 02:35:56;;;;;;;8.93;3.25;;;19.30;99.90;;;;;;5008171;28;20037;-63
2023/02/14 02:39:06;;;;;;;7.97;3.47;;;19.30;99.90;;;;;;5012939;28;20022;-62
2023/02/14 02:41:52;;;;;;;9.93;2.65;;;19.40;99.90;;;;;;5010325;28;20042;-61
2023/02/14 02:44:50;;;;;;;6.57;3.08;;;19.40;99.90;;;;;;5020756;28;20026;-62
2023/02/14 02:47:43;;;;;;;8.23;2.55;;;19.30;99.90;;;;;;5015118;28;20081;-61
2023/02/14 02:53:25;;;;;;;7.65;2.95;;;19.50;99.90;;;;;;5008228;28;20064;-60
2023/02/14 02:59:03;;;;;;;10.45;3.70;;;19.90;99.90;;;;;;5018034;28;20092;-61
2023/02/14 03:01:35;;;;;;;4.38;3.05;;;20.10;99.90;;;;;;4992641;28;20038;-61
2023/02/14 03:06:52;;;;;;;9.75;2.90;;;20.50;99.90;;;;;;5022819;28;20070;-61
2023/02/14 03:09:20;;;;;;;7.60;3.92;;;20.50;99.90;;;;;;5016027;28;20056;-61
2023/02/14 03:12:14;;;;;;;13.48;3.45;;;20.50;99.90;;;;;;4993960;28;20059;-61
2023/02/14 03:14:50;;;;;;;8.57;4.23;;;20.50;99.90;;;;;;5006618;28;20410;-61
2023/02/14 03:20:46;;;;;;;5.80;2.72;;;20.60;99.90;;;;;;5003577;28;20041;-61
2023/02/14 03:23:34;;;;;;;8.15;2.80;;;20.70;99.90;;;;;;5019005;28;20087;-62
2023/02/14 03:26:13;;;;;;;16.95;3.58;;;20.70;99.90;;;;;;5008360;28;20048;-62
2023/02/14 03:28:47;;;;;;;7.50;2.88;;;20.70;99.90;;;;;;5007108;28;20538;-61
2023/02/14 03:31:30;;;;;;;10.33;3.00;;;20.80;99.90;;;;;;5010887;28;20585;-61
2023/02/14 03:34:10;;;;;;;9.77;3.00;;;20.80;99.90;;;;;;5005360;28;20057;-61
2023/02/14 03:36:59;;;;;;;8.43;2.75;;;20.70;99.90;;;;;;5013127;28;20048;-61
2023/02/14 03:39:48;;;;;;;9.27;2.63;;;20.50;99.90;;;;;;5009280;28;20080;-61
2023/02/14 03:42:34;;;;;;;7.10;2.88;;;20.50;99.90;;;;;;5018441;28;20061;-61
2023/02/14 03:45:05;;;;;;;8.95;2.85;;;20.50;99.90;;;;;;5007539;28;20033;-62
2023/02/14 03:47:36;;;;;;;9.35;2.80;;;20.40;99.90;;;;;;5006470;28;20122;-60
2023/02/14 03:50:13;;;;;;;7.63;2.30;;;20.40;99.90;;;;;;5005263;28;20062;-61
2023/02/14 03:52:43;;;;;;;8.05;2.70;;;20.30;99.90;;;;;;5016656;28;20103;-60
2023/02/14 03:55:14;;;;;;;8.70;2.90;;;20.30;99.90;;;;;;5011080;28;20076;-61
2023/02/14 03:57:47;;;;;;;12.07;4.25;;;20.20;99.90;;;;;;5013413;28;20017;-62
2023/02/14 04:00:17;;;;;;;14.32;3.15;;;20.20;99.90;;;;;;5009915;28;20045;-61
2023/02/14 04:02:53;;;;;;;11.57;3.28;;;20.10;99.90;;;;;;5007636;28;20168;-60
2023/02/14 04:05:24;;;;;;;10.20;1.63;;;20.10;99.90;;;;;;5008913;28;20510;-61
2023/02/14 04:07:54;;;;;;;6.95;1.85;;;20.00;99.90;;;;;;5011444;28;20025;-60
2023/02/14 04:10:23;;;;;;;8.63;1.20;;;19.90;99.90;;;;;;5017097;28;20036;-60
2023/02/14 04:12:50;;;;;;;6.07;1.00;;;19.70;99.90;;;;;;5006035;28;20049;-61
2023/02/14 04:15:18;;;;;;;10.90;1.50;;;19.60;99.90;;;;;;4997766;28;20080;-61
2023/02/14 04:20:31;;;;;;;6.25;1.50;;;19.40;99.90;;;;;;5016873;28;20045;-61
2023/02/14 04:22:58;;;;;;;10.15;1.60;;;19.30;99.90;;;;;;5014787;28;20058;-61
2023/02/14 04:25:26;;;;;;;10.65;1.90;;;19.10;99.90;;;;;;5027130;28;20029;-62
2023/02/14 04:27:53;;;;;;;12.10;2.15;;;19.00;99.90;;;;;;5021037;28;20064;-63
2023/02/14 04:30:21;;;;;;;10.95;1.48;;;19.10;99.90;;;;;;4993474;28;20061;-61
2023/02/14 04:32:49;;;;;;;6.47;1.95;;;19.10;99.90;;;;;;5016678;28;20037;-62
2023/02/14 04:35:17;;;;;;;10.82;1.73;;;19.10;99.90;;;;;;5015642;28;20168;-61
2023/02/14 04:37:44;;;;;;;17.00;2.63;;;19.10;99.90;;;;;;5011045;28;20087;-61
2023/02/14 04:40:15;;;;;;;6.65;1.85;;;19.10;99.90;;;;;;5011362;28;20021;-61
2023/02/14 04:42:44;;;;;;;10.35;1.80;;;19.10;99.90;;;;;;5021259;28;20037;-62
2023/02/14 04:45:12;;;;;;;11.30;2.15;;;19.10;99.90;;;;;;5014836;28;20025;-64
2023/02/14 04:47:39;;;;;;;13.77;1.45;;;19.10;99.90;;;;;;5015177;28;20041;-63
2023/02/14 04:50:07;;;;;;;11.80;2.15;;;19.10;99.90;;;;;;5005861;28;20080;-62
2023/02/14 04:52:35;;;;;;;11.23;1.70;;;19.10;99.90;;;;;;4991920;28;20033;-62
2023/02/14 04:55:03;;;;;;;10.30;2.08;;;19.20;99.90;;;;;;5011212;28;20633;-62
2023/02/14 04:57:30;;;;;;;10.05;1.60;;;19.20;99.90;;;;;;5006894;28;20147;-63
2023/02/14 04:59:58;;;;;;;10.57;2.10;;;19.20;99.90;;;;;;5016233;28;20136;-62
2023/02/14 05:02:25;;;;;;;13.05;2.33;;;19.10;99.90;;;;;;5013840;28;20026;-63
2023/02/14 05:04:53;;;;;;;16.13;2.03;;;19.20;99.90;;;;;;5009573;28;20108;-62
2023/02/14 05:07:20;;;;;;;11.63;2.35;;;19.20;99.90;;;;;;5014775;28;20491;-61
2023/02/14 05:09:48;;;;;;;15.50;2.25;;;19.10;99.90;;;;;;5023241;28;20072;-61
2023/02/14 05:12:16;;;;;;;15.23;2.45;;;19.30;99.90;;;;;;5020638;28;20030;-61
2023/02/14 05:14:43;;;;;;;15.75;2.42;;;19.40;99.90;;;;;;5002018;28;20362;-62
2023/02/14 05:17:11;;;;;;;12.07;2.10;;;19.40;99.90;;;;;;5014627;28;20028;-62
2023/02/14 05:19:38;;;;;;;12.32;3.13;;;19.40;99.90;;;;;;5028464;28;20101;-61
2023/02/14 05:22:05;;;;;;;9.93;2.67;;;19.70;99.90;;;;;;5019280;28;20108;-61
2023/02/14 05:24:33;;;;;;;12.80;3.10;;;19.70;99.90;;;;;;5002956;28;20060;-61
2023/02/14 05:27:00;;;;;;;9.90;2.42;;;19.70;99.90;;;;;;5017185;28;20029;-61
2023/02/14 05:29:28;;;;;;;11.88;2.35;;;19.80;99.90;;;;;;5015486;28;20030;-60
2023/02/14 05:31:55;;;;;;;7.35;1.83;;;19.90;99.90;;;;;;5026098;28;20359;-60
2023/02/14 05:34:22;;;;;;;12.95;2.22;;;20.00;99.90;;;;;;5012729;28;20060;-62
2023/02/14 05:36:50;;;;;;;8.93;2.20;;;20.30;99.90;;;;;;5013198;28;20041;-61
2023/02/14 05:39:17;;;;;;;11.20;2.45;;;20.60;99.90;;;;;;4993301;28;20017;-62
2023/02/14 05:41:45;;;;;;;9.43;2.03;;;20.70;99.90;;;;;;5010799;28;20095;-62
2023/02/14 05:44:12;;;;;;;11.38;2.50;;;20.80;99.90;;;;;;5015111;28;20029;-62
2023/02/14 05:46:40;;;;;;;11.13;1.70;;;20.90;99.90;;;;;;5012455;28;20378;-62
2023/02/14 05:49:07;;;;;;;7.03;1.48;;;21.00;99.90;;;;;;5014425;28;20048;-61
2023/02/14 05:51:34;;;;;;;7.57;2.20;;;21.10;99.90;;;;;;5008038;28;20091;-61
2023/02/14 05:54:02;;;;;;;8.88;1.65;;;21.30;99.90;;;;;;5014425;28;20038;-61
2023/02/14 05:56:29;;;;;;;4.90;1.40;;;21.50;99.90;;;;;;4986848;28;20041;-62
2023/02/14 05:58:57;;;;;;;13.57;1.90;;;21.70;99.90;;;;;;5014006;28;20465;-62
2023/02/14 06:01:24;;;;;;;11.27;1.85;;;21.60;99.90;;;;;;4991551;28;20030;-61
2023/02/14 06:03:51;;;;;;;10.32;2.28;;;21.70;99.90;;;;;;5011397;28;20018;-62
2023/02/14 06:06:19;;;;;;;6.13;1.30;;;21.60;99.90;;;;;;4996378;28;20033;-61
2023/02/14 06:08:46;;;;;;;11.75;2.58;;;21.70;99.90;;;;;;5005715;28;20026;-61
2023/02/14 06:11:14;;;;;;;8.15;2.35;;;21.60;99.90;;;;;;4993473;28;20038;-63
2023/02/14 06:13:41;;;;;;;9.35;2.33;;;21.70;99.90;;;;;;5011142;28;20037;-62
2023/02/14 06:16:09;;;;;;;11.80;2.10;;;21.80;99.90;;;;;;5007148;28;20065;-62
2023/02/14 06:18:36;;;;;;;6.72;1.67;;;21.90;99.90;;;;;;5005572;28;20018;-63
2023/02/14 06:21:04;;;;;;;7.82;1.70;;;22.00;99.90;;;;;;5011551;28;20053;-62
2023/02/14 06:23:31;;;;;;;9.10;1.98;;;22.00;99.90;;;;;;5006174;28;20153;-62
2023/02/14 06:25:59;;;;;;;13.52;2.28;;;22.10;99.90;;;;;;5008829;28;20029;-63
2023/02/14 06:28:26;;;;;;;12.25;1.48;;;22.20;99.90;;;;;;5013422;28;20510;-62
2023/02/14 06:30:53;;;;;;;7.35;2.05;;;22.10;99.90;;;;;;4989421;28;20034;-63
2023/02/14 06:33:21;;;;;;;7.70;2.00;;;22.10;99.90;;;;;;5011704;28;20095;-63
2023/02/14 06:35:48;;;;;;;9.32;1.58;;;22.30;99.90;;;;;;5005832;28;20034;-64
2023/02/14 06:38:16;;;;;;;3.47;1.25;;;22.30;99.90;;;;;;5014247;28;20075;-63
2023/02/14 06:40:43;;;;;;;5.28;1.20;;;22.30;99.90;;;;;;5011076;28;20034;-62
2023/02/14 06:43:10;;;;;;;6.65;1.35;;;22.50;99.90;;;;;;5003872;28;20029;-63
2023/02/14 06:45:38;;;;;;;12.07;1.67;;;22.70;99.90;;;;;;5013034;28;20022;-62
2023/02/14 06:48:05;;;;;;;9.23;1.85;;;22.80;99.90;;;;;;5007699;28;20037;-61
2023/02/14 06:50:33;;;;;;;7.22;1.33;;;22.80;99.90;;;;;;5009088;28;20798;-62
2023/02/14 06:53:00;;;;;;;5.25;1.30;;;22.80;99.90;;;;;;5009702;28;20072;-63
2023/02/14 06:55:27;;;;;;;9.30;1.30;;;22.80;99.90;;;;;;5012497;28;20081;-62
2023/02/14 06:57:55;;;;;;;11.48;1.73;;;22.80;99.90;;;;;;5009360;28;20026;-62
2023/02/14 07:00:22;;;;;;;7.13;1.40;;;22.80;99.90;;;;;;5015044;28;20018;-65
2023/02/14 07:02:50;;;;;;;8.73;1.40;;;22.70;99.90;;;;;;5012021;28;20029;-62
2023/02/14 07:05:17;;;;;;;6.32;1.50;;;22.60;99.90;;;;;;5014485;28;20083;-62
2023/02/14 07:07:45;;;;;;;8.20;1.40;;;22.60;99.90;;;;;;5008902;28;20033;-62
2023/02/14 07:10:13;;;;;;;4.50;1.10;;;22.70;99.90;;;;;;5017164;28;20030;-62
2023/02/14 07:12:40;;;;;;;8.65;1.30;;;22.60;99.90;;;;;;5007571;28;20032;-61
2023/02/14 07:15:10;;;;;;;13.52;1.90;;;22.60;99.90;;;;;;5008967;28;20124;-60
2023/02/14 07:17:37;;;;;;;4.85;1.20;;;22.40;99.90;;;;;;5016791;28;20022;-61
2023/02/14 07:20:06;;;;;;;8.35;1.38;;;22.30;99.90;;;;;;4985260;28;20041;-60
2023/02/14 07:22:34;;;;;;;12.80;2.10;;;22.20;99.90;;;;;;4995978;28;20033;-60
2023/02/14 07:25:01;;;;;;;4.25;1.08;;;22.10;99.90;;;;;;5008610;28;20406;-61
2023/02/14 07:27:29;;;;;;;9.73;1.30;;;22.00;99.90;;;;;;5008294;28;20483;-61
2023/02/14 07:29:56;;;;;;;8.52;1.63;;;22.00;99.90;;;;;;5018775;28;20026;-61
2023/02/14 07:32:24;;;;;;;5.03;1.50;;;21.90;99.90;;;;;;5018107;28;20482;-61
2023/02/14 07:34:52;;;;;;;6.28;1.85;;;21.70;99.90;;;;;;5013903;28;20122;-58
2023/02/14 07:37:19;;;;;;;9.25;2.33;;;21.70;99.90;;;;;;5013250;28;20026;-59
2023/02/14 07:39:47;;;;;;;13.45;1.85;;;21.60;99.90;;;;;;5010115;28;20076;-59
2023/02/14 07:42:14;;;;;;;6.82;2.10;;;21.60;99.90;;;;;;5012158;28;20092;-58
2023/02/14 07:44:43;;;;;;;10.98;2.05;;;21.50;99.90;;;;;;5010409;28;20515;-59
2023/02/14 07:47:10;;;;;;;10.30;2.13;;;21.40;99.90;;;;;;5018883;28;20030;-59
2023/02/14 07:49:38;;;;;;;5.82;1.30;;;21.30;99.90;;;;;;5020371;28;20116;-60
2023/02/14 07:52:05;;;;;;;5.80;1.98;;;21.30;99.90;;;;;;5019068;28;20443;-59
2023/02/14 07:54:33;;;;;;;11.77;2.25;;;21.30;99.90;;;;;;5004544;28;20029;-60
2023/02/14 07:57:01;;;;;;;12.00;2.65;;;21.20;99.90;;;;;;5022568;28;20017;-59
2023/02/14 07:59:28;;;;;;;9.38;2.28;;;21.30;99.90;;;;;;5018248;28;20037;-59
2023/02/14 08:01:56;;;;;;;7.82;2.42;;;21.20;99.90;;;;;;5017785;28;20505;-59
2023/02/14 08:04:26;;;;;;;12.60;3.65;;;21.20;99.90;;;;;;5018660;28;20034;-58
2023/02/14 08:06:54;;;;;;;9.70;1.63;;;21.10;99.90;;;;;;5019692;28;20022;-57
2023/02/14 08:09:24;;;;;;;10.65;2.05;;;21.10;99.90;;;;;;5009867;28;20026;-57
2023/02/14 08:14:43;;;;;;;9.82;2.15;;;21.00;99.90;;;;;;5022404;28;20103;-57
2023/02/14 08:17:12;;;;;;;7.32;1.23;;;21.00;99.90;;;;;;5009208;28;20022;-58
2023/02/14 08:19:40;;;;;;;8.95;1.55;;;20.90;99.90;;;;;;5015231;28;20101;-56
2023/02/14 08:22:07;;;;;;;12.10;1.40;;;20.90;99.90;;;;;;5021930;28;20117;-57
2023/02/14 08:24:35;;;;;;;7.93;1.80;;;20.90;99.90;;;;;;5018385;28;20026;-58
2023/02/14 08:27:03;;;;;;;8.43;1.33;;;20.90;99.90;;;;;;5016851;28;20050;-58
2023/02/14 08:29:30;;;;;;;8.48;1.15;;;20.80;99.90;;;;;;5014972;28;20533;-56
2023/02/14 08:31:59;;;;;;;5.18;1.70;;;20.70;99.90;;;;;;5015724;28;20079;-57
2023/02/14 08:34:26;;;;;;;9.75;1.85;;;20.60;99.90;;;;;;5017978;28;20037;-59
2023/02/14 08:36:55;;;;;;;14.00;1.75;;;20.60;99.90;;;;;;5008370;28;20034;-58
2023/02/14 08:39:22;;;;;;;9.65;1.88;;;20.50;99.90;;;;;;5011604;28;20025;-57
2023/02/14 08:41:50;;;;;;;9.63;1.60;;;20.40;99.90;;;;;;5026576;28;20021;-57
2023/02/14 08:44:17;;;;;;;10.80;2.00;;;20.30;99.90;;;;;;5018809;28;20022;-55
2023/02/14 08:46:44;;;;;;;8.75;1.90;;;20.30;99.90;;;;;;5019401;28;20031;-58
2023/02/14 08:49:12;;;;;;;10.00;1.77;;;20.10;99.90;;;;;;5016555;28;20022;-58
2023/02/14 08:51:39;;;;;;;4.65;1.05;;;20.00;99.90;;;;;;5013572;28;20037;-58
2023/02/14 08:54:07;;;;;;;6.88;2.28;;;19.90;99.90;;;;;;5011986;28;20068;-59
2023/02/14 08:56:35;;;;;;;10.98;1.52;;;19.80;99.90;;;;;;5008177;28;20022;-58
2023/02/14 08:59:03;;;;;;;7.32;1.38;;;19.70;99.90;;;;;;5020745;28;20030;-59
2023/02/14 09:01:30;;;;;;;8.45;1.67;;;19.60;99.90;;;;;;5018100;28;20029;-58
2023/02/14 09:03:58;;;;;;;9.23;1.80;;;19.40;99.90;;;;;;5011088;28;20018;-58
2023/02/14 09:06:25;;;;;;;15.10;2.33;;;19.40;99.90;;;;;;5009393;28;20133;-60
2023/02/14 09:08:54;;;;;;;11.85;2.00;;;19.30;99.90;;;;;;5011812;28;20478;-59
2023/02/14 09:11:23;;;;;;;8.85;1.88;;;19.20;99.90;;;;;;5014731;28;20516;-59
2023/02/14 09:13:52;;;;;;;5.72;1.58;;;19.20;99.90;;;;;;5001228;28;20040;-60
2023/02/14 09:16:23;;;;;;;12.90;2.83;;;19.10;99.90;;;;;;5003720;28;20044;-59
2023/02/14 09:18:52;;;;;;;6.70;1.92;;;19.10;99.90;;;;;;4995507;28;20022;-59
2023/02/14 09:21:25;;;;;;;9.30;1.83;;;19.00;99.90;;;;;;5012553;28;20112;-60
2023/02/14 09:23:53;;;;;;;8.70;1.63;;;19.00;99.90;;;;;;5006424;28;20600;-60
2023/02/14 09:26:21;;;;;;;7.53;1.60;;;19.00;99.90;;;;;;5012769;28;20068;-59
2023/02/14 09:28:48;;;;;;;9.10;1.75;;;18.90;99.90;;;;;;5021570;28;20076;-59
2023/02/14 09:31:20;;;;;;;7.95;2.08;;;18.90;99.90;;;;;;5015765;28;20033;-59
2023/02/14 09:33:49;;;;;;;7.85;1.70;;;18.80;99.90;;;;;;4995627;28;20029;-58
2023/02/14 09:39:02;;;;;;;7.32;1.60;;;18.80;99.90;;;;;;5018938;28;20948;-59
2023/02/14 09:41:30;;;;;;;9.95;2.05;;;18.80;99.90;;;;;;5008853;28;20029;-58
2023/02/14 09:44:03;;;;;;;9.55;1.83;;;18.80;99.90;;;;;;5010968;28;20029;-57
2023/02/14 09:46:32;;;;;;;6.45;1.27;;;18.70;99.90;;;;;;4991391;28;20032;-58
2023/02/14 09:49:01;;;;;;;10.02;1.88;;;18.60;99.90;;;;;;5004513;28;20034;-61
2023/02/14 09:51:31;;;;;;;8.50;1.45;;;18.60;99.90;;;;;;5008576;28;20068;-61
2023/02/14 09:54:15;;;;;;;6.63;2.08;;;18.60;99.90;;;;;;5011374;28;20441;-61
2023/02/14 09:56:42;;;;;;;10.13;1.52;;;18.50;99.90;;;;;;5013458;28;20041;-61
2023/02/14 09:59:24;;;;;;;6.78;1.95;;;18.50;99.90;;;;;;5011825;28;20029;-60
2023/02/14 10:02:23;;;;;;;11.40;2.33;;;18.40;99.90;;;;;;5009450;28;20026;-60
2023/02/14 10:05:11;;;;;;;12.82;2.53;;;18.40;99.90;;;;;;5010785;28;20585;-61
2023/02/14 10:08:02;;;;;;;8.73;1.73;;;18.30;99.90;;;;;;4992712;28;20080;-60
2023/02/14 10:10:39;;;;;;;11.82;2.13;;;18.30;99.90;;;;;;4978972;28;20140;-61
2023/02/14 10:13:14;;;;;;;7.75;1.67;;;18.20;99.90;;;;;;5008678;28;20030;-62
2023/02/14 10:15:57;;;;;;;12.45;1.88;;;18.10;99.90;;;;;;5010518;28;20037;-61
2023/02/14 10:18:35;;;;;;;8.85;2.40;;;18.10;99.90;;;;;;5010012;28;20129;-61
2023/02/14 10:21:04;;;;;;;11.35;1.65;;;18.10;99.90;;;;;;5017757;28;20478;-60
2023/02/14 10:23:48;;;;;;;6.93;1.92;;;18.10;99.90;;;;;;5011837;28;20022;-61
2023/02/14 10:26:43;;;;;;;10.93;1.60;;;18.10;99.90;;;;;;5015434;28;20037;-60
2023/02/14 10:29:17;;;;;;;11.32;2.25;;;18.00;99.90;;;;;;4987687;28;20038;-60
2023/02/14 10:31:54;;;;;;;7.75;2.22;;;18.00;99.90;;;;;;5018377;28;20032;-61
2023/02/14 10:34:46;;;;;;;15.25;2.88;;;17.90;99.90;;;;;;4997097;28;20038;-60
2023/02/14 10:37:45;;;;;;;14.93;2.50;;;17.90;99.90;;;;;;5010824;28;20117;-61
2023/02/14 10:40:43;;;;;;;8.45;2.22;;;17.90;99.90;;;;;;5012027;28;20033;-61
2023/02/14 10:43:41;;;;;;;9.85;2.10;;;18.00;99.90;;;;;;5011818;28;20420;-59
2023/02/14 10:46:24;;;;;;;8.48;2.92;;;18.10;99.90;;;;;;5008882;28;20083;-57
2023/02/14 10:48:58;;;;;;;16.45;2.15;;;18.20;99.90;;;;;;5006476;28;20410;-57
2023/02/14 10:51:51;;;;;;;12.43;2.17;;;18.30;99.90;;;;;;5012604;28;20040;-59
2023/02/14 10:54:42;;;;;;;10.65;2.38;;;18.30;99.90;;;;;;5004473;28;20080;-58
2023/02/14 10:57:21;;;;;;;10.15;2.25;;;18.40;99.90;;;;;;5005665;28;20026;-54
2023/02/14 11:00:02;;;;;;;12.70;3.00;;;18.50;99.90;;;;;;5001314;28;20112;-58
2023/02/14 11:02:51;;;;;;;16.23;2.38;;;18.50;99.90;;;;;;5020633;28;20057;-56
2023/02/14 11:05:56;;;;;;;10.05;2.28;;;18.60;99.90;;;;;;5012052;28;20029;-56
2023/02/14 11:08:38;;;;;;;10.93;2.30;;;18.60;99.90;;;;;;4996551;28;20041;-57
2023/02/14 11:11:22;;;;;;;10.45;2.17;;;18.60;99.90;;;;;;5025969;28;20029;-58
2023/02/14 11:13:50;;;;;;;9.88;2.20;;;18.70;99.90;;;;;;5006810;28;20048;-56
2023/02/14 11:16:36;;;;;;;9.93;2.10;;;18.70;99.90;;;;;;5011778;28;20041;-56
2023/02/14 11:19:15;;;;;;;10.48;2.20;;;18.70;99.90;;;;;;5004605;28;20030;-58
2023/02/14 11:21:45;;;;;;;12.02;2.63;;;18.70;99.90;;;;;;5024724;28;20945;-57
2023/02/14 11:24:41;;;;;;;11.38;2.47;;;18.80;99.90;;;;;;5013423;28;20141;-60
2023/02/14 11:27:11;;;;;;;5.97;1.98;;;18.80;99.90;;;;;;5002398;28;20274;-58
2023/02/14 11:29:47;;;;;;;10.30;2.20;;;18.80;99.90;;;;;;5029467;28;20364;-58
2023/02/14 11:32:30;;;;;;;12.55;2.22;;;18.90;99.90;;;;;;5024353;28;20026;-58
2023/02/14 11:35:19;;;;;;;12.35;2.20;;;18.80;99.90;;;;;;5014656;28;20049;-60
2023/02/14 11:37:52;;;;;;;7.03;1.73;;;18.80;99.90;;;;;;5014561;28;20105;-59
2023/02/14 11:40:39;;;;;;;11.35;1.77;;;18.80;99.90;;;;;;5016675;28;20088;-60
2023/02/14 11:43:12;;;;;;;9.02;2.63;;;18.90;99.90;;;;;;5020283;28;20120;-58
2023/02/14 11:45:42;;;;;;;10.90;2.90;;;18.90;99.90;;;;;;5011364;28;20022;-57
2023/02/14 11:48:26;;;;;;;12.75;2.53;;;18.90;99.90;;;;;;5011849;28;20498;-58
2023/02/14 11:51:15;;;;;;;8.73;2.35;;;18.90;99.90;;;;;;5015521;28;20021;-58
2023/02/14 11:53:59;;;;;;;7.82;2.28;;;19.00;99.90;;;;;;5013643;28;20041;-56
2023/02/14 11:57:00;;;;;;;14.43;2.25;;;19.00;99.90;;;;;;5010815;28;20093;-61
2023/02/14 11:59:53;;;;;;;17.88;3.05;;;19.00;99.90;;;;;;5013747;28;20033;-57
2023/02/14 12:02:36;;;;;;;6.07;2.95;;;18.90;99.90;;;;;;5020949;28;20076;-58
2023/02/14 12:05:19;;;;;;;8.77;2.00;;;18.90;99.90;;;;;;5012350;28;20116;-59
2023/02/14 12:07:50;;;;;;;16.33;2.83;;;19.00;99.90;;;;;;4998548;28;20025;-57
2023/02/14 12:10:24;;;;;;;15.07;2.33;;;19.00;99.90;;;;;;5011060;28;20037;-58
2023/02/14 12:12:56;;;;;;;10.65;2.28;;;19.00;99.90;;;;;;5012833;28;20430;-58
2023/02/14 12:15:44;;;;;;;8.55;1.90;;;19.00;99.90;;;;;;5010271;28;20495;-59
2023/02/14 12:18:48;;;;;;;11.45;2.03;;;19.00;99.90;;;;;;5017644;28;20029;-58
2023/02/14 12:21:43;;;;;;;8.70;1.90;;;19.00;99.90;;;;;;5023015;28;20498;-57
2023/02/14 12:24:16;;;;;;;8.75;2.50;;;18.90;99.90;;;;;;5015900;28;20033;-59
2023/02/14 12:26:56;;;;;;;10.20;2.15;;;18.90;99.90;;;;;;5015571;28;20124;-58
2023/02/14 12:29:58;;;;;;;12.55;2.55;;;18.90;99.90;;;;;;5012397;28;20372;-57
2023/02/14 12:32:28;;;;;;;10.52;2.53;;;18.80;99.90;;;;;;4947264;29;20067;-58
2023/02/14 12:35:31;;;;;;;13.10;1.90;;;18.80;99.90;;;;;;4985761;28;20050;-57
2023/02/14 12:38:08;;;;;;;14.43;2.95;;;18.80;99.90;;;;;;5004756;28;20395;-58
2023/02/14 12:40:53;;;;;;;9.13;2.50;;;18.80;99.90;;;;;;5012369;28;20376;-59
2023/02/14 12:43:28;;;;;;;16.13;2.33;;;18.70;99.90;;;;;;5012369;28;20030;-58
2023/02/14 12:46:01;;;;;;;9.85;2.28;;;18.70;99.90;;;;;;5011720;28;20111;-58
2023/02/14 12:48:49;;;;;;;7.90;1.95;;;18.70;99.90;;;;;;5012019;28;20071;-57
2023/02/14 12:51:49;;;;;;;13.25;2.10;;;18.70;99.90;;;;;;5011053;28;20383;-59
2023/02/14 12:54:40;;;;;;;10.60;2.60;;;18.70;99.90;;;;;;4983855;28;20029;-59
2023/02/14 12:57:20;;;;;;;12.55;2.72;;;18.60;99.90;;;;;;5012094;28;20084;-58
2023/02/14 13:00:13;;;;;;;9.18;1.90;;;18.60;99.90;;;;;;5012238;28;20045;-57
2023/02/14 13:03:12;;;;;;;10.57;3.33;;;18.50;99.90;;;;;;5011659;28;20057;-58
2023/02/14 13:05:45;;;;;;;8.57;2.03;;;18.40;99.90;;;;;;5012237;28;20037;-58
2023/02/14 13:08:36;;;;;;;7.10;2.20;;;18.30;99.90;;;;;;4992336;28;20033;-58
2023/02/14 13:11:25;;;;;;;8.50;1.95;;;18.20;99.90;;;;;;4992107;28;20065;-58
2023/02/14 13:14:18;;;;;;;10.68;2.50;;;18.00;99.90;;;;;;4992031;28;20125;-63
2023/02/14 13:17:26;;;;;;;9.45;2.45;;;17.90;99.90;;;;;;4997329;28;20114;-58
2023/02/14 13:19:59;;;;;;;8.18;2.20;;;17.70;99.90;;;;;;5010965;28;20032;-58
2023/02/14 13:22:29;;;;;;;9.48;3.20;;;17.50;99.90;;;;;;5012369;28;20030;-58
2023/02/14 13:25:29;;;;;;;9.95;2.58;;;17.40;99.90;;;;;;5011577;28;20045;-59
2023/02/14 13:27:59;;;;;;;8.73;2.28;;;17.30;99.90;;;;;;5010996;28;20037;-57
2023/02/14 13:30:37;;;;;;;16.05;3.30;;;17.20;99.90;;;;;;5011303;28;20030;-58
2023/02/14 13:33:35;;;;;;;16.52;2.92;;;17.20;99.90;;;;;;5011381;28;20605;-58
2023/02/14 13:36:10;;;;;;;15.38;2.42;;;17.10;99.90;;;;;;4996969;28;20701;-57
2023/02/14 13:38:49;;;;;;;10.75;2.00;;;17.10;99.90;;;;;;4991645;28;20069;-56